sensor_id;sensor_type;location;lat;lon;timestamp;P1;durP1;ratioP1;P2;durP2;ratioP2
6372;SDS011;3219;51.362;7.074;2023-03-24T00:01:48;5.50;;;2.65;;
6372;SDS011;3219;51.362;7.074;2023-03-24T00:04:15;3.65;;;2.45;;
6372;SDS011;3219;51.362;7.074;2023-03-24T00:06:42;8.27;;;2.65;;
6372;SDS011;3219;51.362;7.074;2023-03-24T00:09:09;4.43;;;2.83;;
6372;SDS011;3219;51.362;7.074;2023-03-24T00:11:36;4.80;;;2.90;;
6372;SDS011;3219;51.362;7.074;2023-03-24T00:14:03;4.75;;;2.95;;
6372;SDS011;3219;51.362;7.074;2023-03-24T00:16:31;6.45;;;2.72;;
6372;SDS011;3219;51.362;7.074;2023-03-24T00:18:59;4.88;;;2.88;;
6372;SDS011;3219;51.362;7.074;2023-03-24T00:21:26;5.45;;;2.50;;
6372;SDS011;3219;51.362;7.074;2023-03-24T00:23:53;5.85;;;2.83;;
6372;SDS011;3219;51.362;7.074;2023-03-24T00:26:22;5.50;;;2.65;;
6372;SDS011;3219;51.362;7.074;2023-03-24T00:28:50;5.53;;;2.97;;
6372;SDS011;3219;51.362;7.074;2023-03-24T00:31:17;3.67;;;2.50;;
6372;SDS011;3219;51.362;7.074;2023-03-24T00:33:45;4.32;;;2.17;;
6372;SDS011;3219;51.362;7.074;2023-03-24T00:36:14;4.00;;;2.30;;
6372;SDS011;3219;51.362;7.074;2023-03-24T00:38:43;5.55;;;2.72;;
6372;SDS011;3219;51.362;7.074;2023-03-24T00:41:11;7.15;;;2.60;;
6372;SDS011;3219;51.362;7.074;2023-03-24T00:43:41;4.13;;;2.53;;
6372;SDS011;3219;51.362;7.074;2023-03-24T00:46:10;5.63;;;2.75;;
6372;SDS011;3219;51.362;7.074;2023-03-24T00:48:53;4.97;;;2.47;;
6372;SDS011;3219;51.362;7.074;2023-03-24T00:51:26;5.13;;;2.80;;
6372;SDS011;3219;51.362;7.074;2023-03-24T00:53:53;4.93;;;2.47;;
6372;SDS011;3219;51.362;7.074;2023-03-24T00:56:22;4.28;;;2.33;;
6372;SDS011;3219;51.362;7.074;2023-03-24T00:58:50;3.45;;;2.25;;
6372;SDS011;3219;51.362;7.074;2023-03-24T01:01:18;3.45;;;2.20;;
6372;SDS011;3219;51.362;7.074;2023-03-24T01:03:46;3.42;;;2.10;;
6372;SDS011;3219;51.362;7.074;2023-03-24T01:06:16;4.60;;;2.53;;
6372;SDS011;3219;51.362;7.074;2023-03-24T01:08:43;3.67;;;2.00;;
6372;SDS011;3219;51.362;7.074;2023-03-24T01:11:10;4.43;;;2.53;;
6372;SDS011;3219;51.362;7.074;2023-03-24T01:13:38;3.00;;;2.45;;
6372;SDS011;3219;51.362;7.074;2023-03-24T01:16:05;3.58;;;2.28;;
6372;SDS011;3219;51.362;7.074;2023-03-24T01:18:32;3.50;;;2.60;;
6372;SDS011;3219;51.362;7.074;2023-03-24T01:21:04;4.63;;;2.50;;
6372;SDS011;3219;51.362;7.074;2023-03-24T01:23:33;5.90;;;2.92;;
6372;SDS011;3219;51.362;7.074;2023-03-24T01:26:03;6.47;;;2.95;;
6372;SDS011;3219;51.362;7.074;2023-03-24T01:28:32;5.18;;;2.88;;
6372;SDS011;3219;51.362;7.074;2023-03-24T01:31:04;3.97;;;2.95;;
6372;SDS011;3219;51.362;7.074;2023-03-24T01:33:32;3.42;;;2.92;;
6372;SDS011;3219;51.362;7.074;2023-03-24T01:35:59;3.08;;;2.70;;
6372;SDS011;3219;51.362;7.074;2023-03-24T01:38:26;4.20;;;2.65;;
6372;SDS011;3219;51.362;7.074;2023-03-24T01:40:54;3.95;;;2.58;;
6372;SDS011;3219;51.362;7.074;2023-03-24T01:43:21;5.15;;;2.92;;
6372;SDS011;3219;51.362;7.074;2023-03-24T01:45:59;7.30;;;3.15;;
6372;SDS011;3219;51.362;7.074;2023-03-24T01:48:32;3.50;;;2.70;;
6372;SDS011;3219;51.362;7.074;2023-03-24T01:51:03;3.63;;;3.10;;
6372;SDS011;3219;51.362;7.074;2023-03-24T01:53:33;4.50;;;2.70;;
6372;SDS011;3219;51.362;7.074;2023-03-24T01:56:04;3.58;;;2.78;;
6372;SDS011;3219;51.362;7.074;2023-03-24T01:58:32;3.83;;;2.75;;
6372;SDS011;3219;51.362;7.074;2023-03-24T02:01:01;5.50;;;2.70;;
6372;SDS011;3219;51.362;7.074;2023-03-24T02:03:29;6.30;;;3.30;;
6372;SDS011;3219;51.362;7.074;2023-03-24T02:05:58;5.70;;;3.25;;
6372;SDS011;3219;51.362;7.074;2023-03-24T02:08:27;5.90;;;2.88;;
6372;SDS011;3219;51.362;7.074;2023-03-24T02:10:58;5.15;;;3.40;;
6372;SDS011;3219;51.362;7.074;2023-03-24T02:13:28;4.03;;;2.90;;
6372;SDS011;3219;51.362;7.074;2023-03-24T02:16:02;7.50;;;2.97;;
6372;SDS011;3219;51.362;7.074;2023-03-24T02:18:37;5.53;;;2.92;;
6372;SDS011;3219;51.362;7.074;2023-03-24T02:21:36;4.97;;;3.28;;
6372;SDS011;3219;51.362;7.074;2023-03-24T02:24:37;5.07;;;3.28;;
6372;SDS011;3219;51.362;7.074;2023-03-24T02:30:34;6.72;;;3.10;;
6372;SDS011;3219;51.362;7.074;2023-03-24T02:33:17;3.13;;;2.65;;
6372;SDS011;3219;51.362;7.074;2023-03-24T02:36:21;3.90;;;3.10;;
6372;SDS011;3219;51.362;7.074;2023-03-24T02:39:23;4.57;;;3.03;;
6372;SDS011;3219;51.362;7.074;2023-03-24T02:42:06;4.55;;;2.97;;
6372;SDS011;3219;51.362;7.074;2023-03-24T02:44:45;5.13;;;3.53;;
6372;SDS011;3219;51.362;7.074;2023-03-24T02:47:18;6.75;;;3.10;;
6372;SDS011;3219;51.362;7.074;2023-03-24T02:49:54;4.20;;;2.97;;
6372;SDS011;3219;51.362;7.074;2023-03-24T02:52:29;4.03;;;2.80;;
6372;SDS011;3219;51.362;7.074;2023-03-24T02:55:03;5.80;;;3.03;;
6372;SDS011;3219;51.362;7.074;2023-03-24T02:57:38;4.78;;;3.00;;
6372;SDS011;3219;51.362;7.074;2023-03-24T03:00:13;4.07;;;3.13;;
6372;SDS011;3219;51.362;7.074;2023-03-24T03:02:45;5.07;;;3.03;;
6372;SDS011;3219;51.362;7.074;2023-03-24T03:05:20;3.75;;;3.13;;
6372;SDS011;3219;51.362;7.074;2023-03-24T03:07:52;5.53;;;3.45;;
6372;SDS011;3219;51.362;7.074;2023-03-24T03:10:26;6.35;;;3.47;;
6372;SDS011;3219;51.362;7.074;2023-03-24T03:12:57;4.22;;;3.20;;
6372;SDS011;3219;51.362;7.074;2023-03-24T03:15:28;5.05;;;3.60;;
6372;SDS011;3219;51.362;7.074;2023-03-24T03:18:04;5.18;;;3.20;;
6372;SDS011;3219;51.362;7.074;2023-03-24T03:20:37;5.00;;;3.30;;
6372;SDS011;3219;51.362;7.074;2023-03-24T03:23:15;6.03;;;3.60;;
6372;SDS011;3219;51.362;7.074;2023-03-24T03:25:50;4.82;;;3.30;;
6372;SDS011;3219;51.362;7.074;2023-03-24T03:28:22;4.85;;;3.58;;
6372;SDS011;3219;51.362;7.074;2023-03-24T03:30:54;5.28;;;3.80;;
6372;SDS011;3219;51.362;7.074;2023-03-24T03:33:26;3.97;;;3.20;;
6372;SDS011;3219;51.362;7.074;2023-03-24T03:36:01;5.32;;;3.70;;
6372;SDS011;3219;51.362;7.074;2023-03-24T03:38:34;5.47;;;3.83;;
6372;SDS011;3219;51.362;7.074;2023-03-24T03:41:07;5.82;;;4.00;;
6372;SDS011;3219;51.362;7.074;2023-03-24T03:43:34;4.10;;;3.70;;
6372;SDS011;3219;51.362;7.074;2023-03-24T03:46:01;5.43;;;3.75;;
6372;SDS011;3219;51.362;7.074;2023-03-24T03:48:30;7.18;;;3.88;;
6372;SDS011;3219;51.362;7.074;2023-03-24T03:50:58;8.48;;;4.32;;
6372;SDS011;3219;51.362;7.074;2023-03-24T03:53:26;7.22;;;5.43;;
6372;SDS011;3219;51.362;7.074;2023-03-24T03:55:56;5.95;;;4.70;;
6372;SDS011;3219;51.362;7.074;2023-03-24T03:58:25;5.15;;;4.35;;
6372;SDS011;3219;51.362;7.074;2023-03-24T04:00:52;4.43;;;3.85;;
6372;SDS011;3219;51.362;7.074;2023-03-24T04:03:25;7.60;;;3.40;;
6372;SDS011;3219;51.362;7.074;2023-03-24T04:06:02;5.40;;;3.90;;
6372;SDS011;3219;51.362;7.074;2023-03-24T04:08:41;4.55;;;3.50;;
6372;SDS011;3219;51.362;7.074;2023-03-24T04:11:19;4.82;;;3.67;;
6372;SDS011;3219;51.362;7.074;2023-03-24T04:14:01;4.43;;;3.25;;
6372;SDS011;3219;51.362;7.074;2023-03-24T04:16:41;5.00;;;3.47;;
6372;SDS011;3219;51.362;7.074;2023-03-24T04:19:21;6.72;;;3.70;;
6372;SDS011;3219;51.362;7.074;2023-03-24T04:22:03;5.38;;;3.10;;
6372;SDS011;3219;51.362;7.074;2023-03-24T04:24:43;3.50;;;3.08;;
6372;SDS011;3219;51.362;7.074;2023-03-24T04:27:17;5.80;;;3.90;;
6372;SDS011;3219;51.362;7.074;2023-03-24T04:29:53;4.93;;;3.00;;
6372;SDS011;3219;51.362;7.074;2023-03-24T04:32:30;3.85;;;2.90;;
6372;SDS011;3219;51.362;7.074;2023-03-24T04:35:05;3.60;;;3.22;;
6372;SDS011;3219;51.362;7.074;2023-03-24T04:37:37;4.63;;;3.08;;
6372;SDS011;3219;51.362;7.074;2023-03-24T04:40:05;3.53;;;2.80;;
6372;SDS011;3219;51.362;7.074;2023-03-24T04:42:37;2.85;;;2.55;;
6372;SDS011;3219;51.362;7.074;2023-03-24T04:45:10;3.53;;;2.65;;
6372;SDS011;3219;51.362;7.074;2023-03-24T04:47:41;3.78;;;2.50;;
6372;SDS011;3219;51.362;7.074;2023-03-24T04:50:11;2.95;;;2.35;;
6372;SDS011;3219;51.362;7.074;2023-03-24T04:52:39;5.72;;;2.10;;
6372;SDS011;3219;51.362;7.074;2023-03-24T04:55:15;2.40;;;1.98;;
6372;SDS011;3219;51.362;7.074;2023-03-24T04:57:56;3.05;;;2.22;;
6372;SDS011;3219;51.362;7.074;2023-03-24T05:00:24;4.18;;;2.53;;
6372;SDS011;3219;51.362;7.074;2023-03-24T05:02:51;5.18;;;2.63;;
6372;SDS011;3219;51.362;7.074;2023-03-24T05:05:18;2.33;;;2.10;;
6372;SDS011;3219;51.362;7.074;2023-03-24T05:07:45;3.45;;;2.40;;
6372;SDS011;3219;51.362;7.074;2023-03-24T05:10:13;13.90;;;2.72;;
6372;SDS011;3219;51.362;7.074;2023-03-24T05:12:40;3.88;;;2.88;;
6372;SDS011;3219;51.362;7.074;2023-03-24T05:15:09;6.05;;;3.00;;
6372;SDS011;3219;51.362;7.074;2023-03-24T05:17:38;4.97;;;2.70;;
6372;SDS011;3219;51.362;7.074;2023-03-24T05:20:06;3.63;;;2.83;;
6372;SDS011;3219;51.362;7.074;2023-03-24T05:22:34;4.90;;;2.95;;
6372;SDS011;3219;51.362;7.074;2023-03-24T05:25:01;4.22;;;2.47;;
6372;SDS011;3219;51.362;7.074;2023-03-24T05:27:28;4.88;;;2.40;;
6372;SDS011;3219;51.362;7.074;2023-03-24T05:29:55;3.22;;;2.00;;
6372;SDS011;3219;51.362;7.074;2023-03-24T05:32:22;2.92;;;2.22;;
6372;SDS011;3219;51.362;7.074;2023-03-24T05:34:50;2.95;;;1.80;;
6372;SDS011;3219;51.362;7.074;2023-03-24T05:37:17;4.10;;;1.95;;
6372;SDS011;3219;51.362;7.074;2023-03-24T05:39:44;4.85;;;2.00;;
6372;SDS011;3219;51.362;7.074;2023-03-24T05:42:11;3.97;;;1.63;;
6372;SDS011;3219;51.362;7.074;2023-03-24T05:44:38;2.17;;;1.33;;
6372;SDS011;3219;51.362;7.074;2023-03-24T05:47:05;4.45;;;1.70;;
6372;SDS011;3219;51.362;7.074;2023-03-24T05:49:32;4.95;;;2.05;;
6372;SDS011;3219;51.362;7.074;2023-03-24T05:52:00;3.78;;;1.70;;
6372;SDS011;3219;51.362;7.074;2023-03-24T05:54:27;5.88;;;1.98;;
6372;SDS011;3219;51.362;7.074;2023-03-24T05:56:54;6.78;;;2.00;;
6372;SDS011;3219;51.362;7.074;2023-03-24T05:59:20;4.45;;;2.10;;
6372;SDS011;3219;51.362;7.074;2023-03-24T06:01:47;3.72;;;1.80;;
6372;SDS011;3219;51.362;7.074;2023-03-24T06:04:14;4.40;;;2.22;;
6372;SDS011;3219;51.362;7.074;2023-03-24T06:06:42;5.47;;;2.10;;
6372;SDS011;3219;51.362;7.074;2023-03-24T06:09:11;4.55;;;2.10;;
6372;SDS011;3219;51.362;7.074;2023-03-24T06:11:40;3.57;;;2.23;;
6372;SDS011;3219;51.362;7.074;2023-03-24T06:14:07;4.75;;;2.40;;
6372;SDS011;3219;51.362;7.074;2023-03-24T06:16:34;5.00;;;2.35;;
6372;SDS011;3219;51.362;7.074;2023-03-24T06:19:03;4.90;;;2.10;;
6372;SDS011;3219;51.362;7.074;2023-03-24T06:21:30;5.07;;;1.95;;
6372;SDS011;3219;51.362;7.074;2023-03-24T06:23:57;4.88;;;2.05;;
6372;SDS011;3219;51.362;7.074;2023-03-24T06:26:26;4.50;;;1.50;;
6372;SDS011;3219;51.362;7.074;2023-03-24T06:28:54;2.53;;;1.30;;
6372;SDS011;3219;51.362;7.074;2023-03-24T06:31:22;4.93;;;1.67;;
6372;SDS011;3219;51.362;7.074;2023-03-24T06:33:49;2.90;;;1.50;;
6372;SDS011;3219;51.362;7.074;2023-03-24T06:36:17;5.30;;;1.95;;
6372;SDS011;3219;51.362;7.074;2023-03-24T06:38:44;10.88;;;2.20;;
6372;SDS011;3219;51.362;7.074;2023-03-24T06:41:11;6.43;;;1.67;;
6372;SDS011;3219;51.362;7.074;2023-03-24T06:43:39;5.78;;;1.98;;
6372;SDS011;3219;51.362;7.074;2023-03-24T06:46:05;7.00;;;2.20;;
6372;SDS011;3219;51.362;7.074;2023-03-24T06:48:34;8.40;;;2.40;;
6372;SDS011;3219;51.362;7.074;2023-03-24T06:51:01;11.35;;;2.78;;
6372;SDS011;3219;51.362;7.074;2023-03-24T06:53:28;6.80;;;2.08;;
6372;SDS011;3219;51.362;7.074;2023-03-24T06:55:55;10.02;;;2.35;;
6372;SDS011;3219;51.362;7.074;2023-03-24T06:58:21;7.00;;;2.35;;
6372;SDS011;3219;51.362;7.074;2023-03-24T07:00:49;9.23;;;2.45;;
6372;SDS011;3219;51.362;7.074;2023-03-24T07:03:17;10.93;;;2.88;;
6372;SDS011;3219;51.362;7.074;2023-03-24T07:05:47;9.70;;;2.42;;
6372;SDS011;3219;51.362;7.074;2023-03-24T07:08:14;8.68;;;2.17;;
6372;SDS011;3219;51.362;7.074;2023-03-24T07:10:41;10.73;;;2.58;;
6372;SDS011;3219;51.362;7.074;2023-03-24T07:13:08;11.48;;;3.00;;
6372;SDS011;3219;51.362;7.074;2023-03-24T07:15:35;9.63;;;2.30;;
6372;SDS011;3219;51.362;7.074;2023-03-24T07:18:03;14.35;;;2.78;;
6372;SDS011;3219;51.362;7.074;2023-03-24T07:20:30;9.13;;;2.33;;
6372;SDS011;3219;51.362;7.074;2023-03-24T07:22:57;11.27;;;2.65;;
6372;SDS011;3219;51.362;7.074;2023-03-24T07:25:24;10.18;;;2.88;;
6372;SDS011;3219;51.362;7.074;2023-03-24T07:27:52;9.15;;;2.20;;
6372;SDS011;3219;51.362;7.074;2023-03-24T07:30:19;8.45;;;2.22;;
6372;SDS011;3219;51.362;7.074;2023-03-24T07:32:46;8.68;;;2.50;;
6372;SDS011;3219;51.362;7.074;2023-03-24T07:35:15;8.23;;;2.30;;
6372;SDS011;3219;51.362;7.074;2023-03-24T07:37:42;12.18;;;2.38;;
6372;SDS011;3219;51.362;7.074;2023-03-24T07:40:10;8.77;;;2.22;;
6372;SDS011;3219;51.362;7.074;2023-03-24T07:42:38;7.25;;;2.70;;
6372;SDS011;3219;51.362;7.074;2023-03-24T07:45:06;7.10;;;2.38;;
6372;SDS011;3219;51.362;7.074;2023-03-24T07:47:34;8.18;;;2.28;;
6372;SDS011;3219;51.362;7.074;2023-03-24T07:50:03;8.77;;;2.63;;
6372;SDS011;3219;51.362;7.074;2023-03-24T07:52:35;7.75;;;2.67;;
6372;SDS011;3219;51.362;7.074;2023-03-24T07:55:02;6.78;;;2.55;;
6372;SDS011;3219;51.362;7.074;2023-03-24T07:57:30;8.30;;;2.33;;
6372;SDS011;3219;51.362;7.074;2023-03-24T07:59:59;6.82;;;2.13;;
6372;SDS011;3219;51.362;7.074;2023-03-24T08:02:25;9.30;;;2.50;;
6372;SDS011;3219;51.362;7.074;2023-03-24T08:04:52;9.05;;;2.50;;
6372;SDS011;3219;51.362;7.074;2023-03-24T08:07:20;10.60;;;2.15;;
6372;SDS011;3219;51.362;7.074;2023-03-24T08:09:48;6.63;;;2.05;;
6372;SDS011;3219;51.362;7.074;2023-03-24T08:12:15;9.05;;;2.13;;
6372;SDS011;3219;51.362;7.074;2023-03-24T08:14:42;10.77;;;2.28;;
6372;SDS011;3219;51.362;7.074;2023-03-24T08:17:08;8.07;;;2.65;;
6372;SDS011;3219;51.362;7.074;2023-03-24T08:19:35;10.30;;;2.95;;
6372;SDS011;3219;51.362;7.074;2023-03-24T08:22:02;6.82;;;2.40;;
6372;SDS011;3219;51.362;7.074;2023-03-24T08:24:29;9.65;;;3.22;;
6372;SDS011;3219;51.362;7.074;2023-03-24T08:26:57;8.77;;;2.97;;
6372;SDS011;3219;51.362;7.074;2023-03-24T08:29:26;13.88;;;3.35;;
6372;SDS011;3219;51.362;7.074;2023-03-24T08:31:53;11.57;;;2.88;;
6372;SDS011;3219;51.362;7.074;2023-03-24T08:34:20;10.20;;;3.25;;
6372;SDS011;3219;51.362;7.074;2023-03-24T08:36:49;11.02;;;3.33;;
6372;SDS011;3219;51.362;7.074;2023-03-24T08:39:15;8.40;;;2.63;;
6372;SDS011;3219;51.362;7.074;2023-03-24T08:41:42;11.13;;;3.22;;
6372;SDS011;3219;51.362;7.074;2023-03-24T08:44:11;7.00;;;2.70;;
6372;SDS011;3219;51.362;7.074;2023-03-24T08:46:38;10.90;;;3.25;;
6372;SDS011;3219;51.362;7.074;2023-03-24T08:49:06;12.88;;;3.33;;
6372;SDS011;3219;51.362;7.074;2023-03-24T08:51:33;7.32;;;3.10;;
6372;SDS011;3219;51.362;7.074;2023-03-24T08:54:00;9.95;;;3.25;;
6372;SDS011;3219;51.362;7.074;2023-03-24T08:56:28;8.93;;;3.15;;
6372;SDS011;3219;51.362;7.074;2023-03-24T08:58:55;12.80;;;3.88;;
6372;SDS011;3219;51.362;7.074;2023-03-24T09:01:23;10.82;;;3.10;;
6372;SDS011;3219;51.362;7.074;2023-03-24T09:03:50;10.95;;;3.38;;
6372;SDS011;3219;51.362;7.074;2023-03-24T09:06:17;13.13;;;3.72;;
6372;SDS011;3219;51.362;7.074;2023-03-24T09:08:44;13.10;;;3.88;;
6372;SDS011;3219;51.362;7.074;2023-03-24T09:13:39;11.98;;;3.60;;
6372;SDS011;3219;51.362;7.074;2023-03-24T09:16:06;12.73;;;3.45;;
6372;SDS011;3219;51.362;7.074;2023-03-24T09:18:34;9.75;;;3.25;;
6372;SDS011;3219;51.362;7.074;2023-03-24T09:21:01;13.05;;;4.00;;
6372;SDS011;3219;51.362;7.074;2023-03-24T09:23:28;12.75;;;3.50;;
6372;SDS011;3219;51.362;7.074;2023-03-24T09:25:55;11.00;;;3.53;;
6372;SDS011;3219;51.362;7.074;2023-03-24T09:28:22;10.63;;;3.20;;
6372;SDS011;3219;51.362;7.074;2023-03-24T09:30:49;12.88;;;4.53;;
6372;SDS011;3219;51.362;7.074;2023-03-24T09:33:21;11.95;;;3.33;;
6372;SDS011;3219;51.362;7.074;2023-03-24T09:35:53;9.55;;;3.20;;
6372;SDS011;3219;51.362;7.074;2023-03-24T09:38:20;8.52;;;3.03;;
6372;SDS011;3219;51.362;7.074;2023-03-24T09:40:48;12.63;;;3.17;;
6372;SDS011;3219;51.362;7.074;2023-03-24T09:43:20;8.07;;;3.03;;
6372;SDS011;3219;51.362;7.074;2023-03-24T09:45:53;10.55;;;3.38;;
6372;SDS011;3219;51.362;7.074;2023-03-24T09:48:24;8.93;;;3.38;;
6372;SDS011;3219;51.362;7.074;2023-03-24T09:50:59;12.20;;;3.00;;
6372;SDS011;3219;51.362;7.074;2023-03-24T09:53:30;12.40;;;3.15;;
6372;SDS011;3219;51.362;7.074;2023-03-24T09:56:02;12.23;;;3.47;;
6372;SDS011;3219;51.362;7.074;2023-03-24T09:58:36;9.73;;;3.08;;
6372;SDS011;3219;51.362;7.074;2023-03-24T10:01:07;13.35;;;3.22;;
6372;SDS011;3219;51.362;7.074;2023-03-24T10:03:43;11.63;;;3.05;;
6372;SDS011;3219;51.362;7.074;2023-03-24T10:06:14;12.32;;;3.17;;
6372;SDS011;3219;51.362;7.074;2023-03-24T10:08:48;8.43;;;2.88;;
6372;SDS011;3219;51.362;7.074;2023-03-24T10:11:21;12.10;;;3.67;;
6372;SDS011;3219;51.362;7.074;2023-03-24T10:13:54;12.87;;;3.20;;
6372;SDS011;3219;51.362;7.074;2023-03-24T10:16:31;12.20;;;2.90;;
6372;SDS011;3219;51.362;7.074;2023-03-24T10:19:04;13.73;;;3.63;;
6372;SDS011;3219;51.362;7.074;2023-03-24T10:21:45;12.05;;;2.85;;
6372;SDS011;3219;51.362;7.074;2023-03-24T10:24:21;14.65;;;3.55;;
6372;SDS011;3219;51.362;7.074;2023-03-24T10:26:54;12.73;;;3.13;;
6372;SDS011;3219;51.362;7.074;2023-03-24T10:29:26;8.65;;;3.28;;
6372;SDS011;3219;51.362;7.074;2023-03-24T10:31:56;9.85;;;3.15;;
6372;SDS011;3219;51.362;7.074;2023-03-24T10:34:28;18.38;;;3.83;;
6372;SDS011;3219;51.362;7.074;2023-03-24T10:36:59;13.45;;;3.45;;
6372;SDS011;3219;51.362;7.074;2023-03-24T10:39:27;10.77;;;3.42;;
6372;SDS011;3219;51.362;7.074;2023-03-24T10:41:55;9.00;;;2.75;;
6372;SDS011;3219;51.362;7.074;2023-03-24T10:44:24;11.63;;;3.30;;
6372;SDS011;3219;51.362;7.074;2023-03-24T10:46:53;8.43;;;3.00;;
6372;SDS011;3219;51.362;7.074;2023-03-24T10:49:21;11.70;;;3.25;;
6372;SDS011;3219;51.362;7.074;2023-03-24T10:51:49;9.85;;;3.05;;
6372;SDS011;3219;51.362;7.074;2023-03-24T10:54:18;13.90;;;3.30;;
6372;SDS011;3219;51.362;7.074;2023-03-24T10:56:47;11.48;;;2.97;;
6372;SDS011;3219;51.362;7.074;2023-03-24T10:59:17;9.48;;;3.15;;
6372;SDS011;3219;51.362;7.074;2023-03-24T11:01:54;10.88;;;3.63;;
6372;SDS011;3219;51.362;7.074;2023-03-24T11:04:23;8.40;;;2.85;;
6372;SDS011;3219;51.362;7.074;2023-03-24T11:06:56;16.17;;;3.55;;
6372;SDS011;3219;51.362;7.074;2023-03-24T11:09:29;11.70;;;3.63;;
6372;SDS011;3219;51.362;7.074;2023-03-24T11:12:04;11.25;;;3.38;;
6372;SDS011;3219;51.362;7.074;2023-03-24T11:14:47;8.55;;;2.53;;
6372;SDS011;3219;51.362;7.074;2023-03-24T11:17:14;12.15;;;3.55;;
6372;SDS011;3219;51.362;7.074;2023-03-24T11:19:49;7.05;;;2.63;;
6372;SDS011;3219;51.362;7.074;2023-03-24T11:22:16;11.90;;;3.17;;
6372;SDS011;3219;51.362;7.074;2023-03-24T11:24:44;10.25;;;3.22;;
6372;SDS011;3219;51.362;7.074;2023-03-24T11:27:14;8.52;;;3.20;;
6372;SDS011;3219;51.362;7.074;2023-03-24T11:29:42;10.90;;;3.33;;
6372;SDS011;3219;51.362;7.074;2023-03-24T11:32:14;11.77;;;3.55;;
6372;SDS011;3219;51.362;7.074;2023-03-24T11:34:47;10.95;;;2.75;;
6372;SDS011;3219;51.362;7.074;2023-03-24T11:37:17;7.68;;;2.80;;
6372;SDS011;3219;51.362;7.074;2023-03-24T11:39:52;11.52;;;3.20;;
6372;SDS011;3219;51.362;7.074;2023-03-24T11:42:41;7.90;;;2.60;;
6372;SDS011;3219;51.362;7.074;2023-03-24T11:45:18;10.55;;;2.65;;
6372;SDS011;3219;51.362;7.074;2023-03-24T11:47:50;11.47;;;3.40;;
6372;SDS011;3219;51.362;7.074;2023-03-24T11:50:19;13.65;;;3.60;;
6372;SDS011;3219;51.362;7.074;2023-03-24T11:52:50;7.55;;;3.13;;
6372;SDS011;3219;51.362;7.074;2023-03-24T11:55:22;10.07;;;2.95;;
6372;SDS011;3219;51.362;7.074;2023-03-24T11:57:55;10.23;;;2.88;;
6372;SDS011;3219;51.362;7.074;2023-03-24T12:00:26;9.70;;;2.88;;
6372;SDS011;3219;51.362;7.074;2023-03-24T12:03:03;5.80;;;2.20;;
6372;SDS011;3219;51.362;7.074;2023-03-24T12:05:57;9.55;;;2.80;;
6372;SDS011;3219;51.362;7.074;2023-03-24T12:08:34;7.63;;;2.60;;
6372;SDS011;3219;51.362;7.074;2023-03-24T12:11:14;10.43;;;3.58;;
6372;SDS011;3219;51.362;7.074;2023-03-24T12:13:45;8.38;;;2.75;;
6372;SDS011;3219;51.362;7.074;2023-03-24T12:16:20;10.60;;;3.00;;
6372;SDS011;3219;51.362;7.074;2023-03-24T12:19:20;6.00;;;2.10;;
6372;SDS011;3219;51.362;7.074;2023-03-24T12:22:02;8.43;;;3.13;;
6372;SDS011;3219;51.362;7.074;2023-03-24T12:24:54;11.63;;;2.75;;
6372;SDS011;3219;51.362;7.074;2023-03-24T12:27:45;8.60;;;3.25;;
6372;SDS011;3219;51.362;7.074;2023-03-24T12:30:19;7.85;;;2.63;;
6372;SDS011;3219;51.362;7.074;2023-03-24T12:32:55;7.45;;;2.50;;
6372;SDS011;3219;51.362;7.074;2023-03-24T12:38:24;10.07;;;2.70;;
6372;SDS011;3219;51.362;7.074;2023-03-24T12:41:05;8.10;;;2.42;;
6372;SDS011;3219;51.362;7.074;2023-03-24T12:43:52;11.38;;;2.90;;
6372;SDS011;3219;51.362;7.074;2023-03-24T12:46:32;8.43;;;2.53;;
6372;SDS011;3219;51.362;7.074;2023-03-24T12:49:19;11.38;;;3.47;;
6372;SDS011;3219;51.362;7.074;2023-03-24T12:51:58;7.18;;;2.40;;
6372;SDS011;3219;51.362;7.074;2023-03-24T12:54:40;8.70;;;2.47;;
6372;SDS011;3219;51.362;7.074;2023-03-24T12:57:13;8.88;;;2.50;;
6372;SDS011;3219;51.362;7.074;2023-03-24T12:59:45;8.75;;;2.25;;
6372;SDS011;3219;51.362;7.074;2023-03-24T13:02:19;9.57;;;2.63;;
6372;SDS011;3219;51.362;7.074;2023-03-24T13:04:50;6.55;;;2.22;;
6372;SDS011;3219;51.362;7.074;2023-03-24T13:07:22;6.90;;;2.78;;
6372;SDS011;3219;51.362;7.074;2023-03-24T13:09:53;8.43;;;2.25;;
6372;SDS011;3219;51.362;7.074;2023-03-24T13:12:26;7.82;;;2.28;;
6372;SDS011;3219;51.362;7.074;2023-03-24T13:15:01;10.25;;;2.80;;
6372;SDS011;3219;51.362;7.074;2023-03-24T13:17:32;9.75;;;2.78;;
6372;SDS011;3219;51.362;7.074;2023-03-24T13:22:35;8.18;;;2.50;;
6372;SDS011;3219;51.362;7.074;2023-03-24T13:25:03;9.18;;;2.33;;
6372;SDS011;3219;51.362;7.074;2023-03-24T13:27:42;10.63;;;2.40;;
6372;SDS011;3219;51.362;7.074;2023-03-24T13:30:21;11.88;;;2.83;;
6372;SDS011;3219;51.362;7.074;2023-03-24T13:32:56;11.45;;;2.63;;
6372;SDS011;3219;51.362;7.074;2023-03-24T13:35:30;9.38;;;2.28;;
6372;SDS011;3219;51.362;7.074;2023-03-24T13:38:12;6.85;;;2.78;;
6372;SDS011;3219;51.362;7.074;2023-03-24T13:40:42;8.15;;;2.80;;
6372;SDS011;3219;51.362;7.074;2023-03-24T13:43:15;11.95;;;2.60;;
6372;SDS011;3219;51.362;7.074;2023-03-24T13:45:46;12.32;;;2.25;;
6372;SDS011;3219;51.362;7.074;2023-03-24T13:48:17;6.65;;;2.25;;
6372;SDS011;3219;51.362;7.074;2023-03-24T13:50:52;25.42;;;2.58;;
6372;SDS011;3219;51.362;7.074;2023-03-24T13:53:31;10.60;;;3.00;;
6372;SDS011;3219;51.362;7.074;2023-03-24T13:56:01;9.25;;;2.40;;
6372;SDS011;3219;51.362;7.074;2023-03-24T13:58:49;9.23;;;2.08;;
6372;SDS011;3219;51.362;7.074;2023-03-24T14:01:34;9.95;;;2.70;;
6372;SDS011;3219;51.362;7.074;2023-03-24T14:06:52;7.25;;;2.30;;
6372;SDS011;3219;51.362;7.074;2023-03-24T14:09:21;10.45;;;2.40;;
6372;SDS011;3219;51.362;7.074;2023-03-24T14:17:41;7.20;;;2.15;;
6372;SDS011;3219;51.362;7.074;2023-03-24T14:20:10;8.02;;;2.00;;
6372;SDS011;3219;51.362;7.074;2023-03-24T14:22:46;16.73;;;2.88;;
6372;SDS011;3219;51.362;7.074;2023-03-24T14:25:18;10.18;;;2.28;;
6372;SDS011;3219;51.362;7.074;2023-03-24T14:27:49;7.10;;;1.88;;
6372;SDS011;3219;51.362;7.074;2023-03-24T14:30:18;5.07;;;1.88;;
6372;SDS011;3219;51.362;7.074;2023-03-24T14:32:49;3.78;;;1.48;;
6372;SDS011;3219;51.362;7.074;2023-03-24T14:35:19;5.65;;;1.85;;
6372;SDS011;3219;51.362;7.074;2023-03-24T14:37:50;4.13;;;1.58;;
6372;SDS011;3219;51.362;7.074;2023-03-24T14:40:24;3.70;;;1.55;;
6372;SDS011;3219;51.362;7.074;2023-03-24T14:42:54;11.25;;;2.33;;
6372;SDS011;3219;51.362;7.074;2023-03-24T14:45:37;5.15;;;1.90;;
6372;SDS011;3219;51.362;7.074;2023-03-24T14:48:14;7.85;;;1.70;;
6372;SDS011;3219;51.362;7.074;2023-03-24T14:50:52;6.07;;;2.00;;
6372;SDS011;3219;51.362;7.074;2023-03-24T14:53:20;5.28;;;1.80;;
6372;SDS011;3219;51.362;7.074;2023-03-24T14:55:48;5.93;;;2.15;;
6372;SDS011;3219;51.362;7.074;2023-03-24T14:58:18;5.07;;;1.92;;
6372;SDS011;3219;51.362;7.074;2023-03-24T15:00:50;9.90;;;3.25;;
6372;SDS011;3219;51.362;7.074;2023-03-24T15:03:22;5.97;;;2.38;;
6372;SDS011;3219;51.362;7.074;2023-03-24T15:06:02;7.88;;;3.33;;
6372;SDS011;3219;51.362;7.074;2023-03-24T15:08:42;10.77;;;2.47;;
6372;SDS011;3219;51.362;7.074;2023-03-24T15:13:40;10.20;;;2.85;;
6372;SDS011;3219;51.362;7.074;2023-03-24T15:16:16;5.70;;;1.80;;
6372;SDS011;3219;51.362;7.074;2023-03-24T15:18:46;8.95;;;2.58;;
6372;SDS011;3219;51.362;7.074;2023-03-24T15:21:19;5.97;;;2.03;;
6372;SDS011;3219;51.362;7.074;2023-03-24T15:23:48;9.88;;;2.83;;
6372;SDS011;3219;51.362;7.074;2023-03-24T15:26:15;9.40;;;2.67;;
6372;SDS011;3219;51.362;7.074;2023-03-24T15:28:52;10.65;;;2.30;;
6372;SDS011;3219;51.362;7.074;2023-03-24T15:31:21;5.82;;;2.03;;
6372;SDS011;3219;51.362;7.074;2023-03-24T15:34:00;7.70;;;2.10;;
6372;SDS011;3219;51.362;7.074;2023-03-24T15:36:32;7.85;;;1.98;;
6372;SDS011;3219;51.362;7.074;2023-03-24T15:39:14;8.40;;;2.17;;
6372;SDS011;3219;51.362;7.074;2023-03-24T15:41:42;6.70;;;2.00;;
6372;SDS011;3219;51.362;7.074;2023-03-24T15:44:12;6.78;;;1.85;;
6372;SDS011;3219;51.362;7.074;2023-03-24T15:46:43;11.55;;;2.53;;
6372;SDS011;3219;51.362;7.074;2023-03-24T15:49:17;8.80;;;2.97;;
6372;SDS011;3219;51.362;7.074;2023-03-24T15:51:48;8.13;;;2.97;;
6372;SDS011;3219;51.362;7.074;2023-03-24T15:54:18;6.18;;;1.95;;
6372;SDS011;3219;51.362;7.074;2023-03-24T15:56:58;7.28;;;2.65;;
6372;SDS011;3219;51.362;7.074;2023-03-24T15:59:31;9.77;;;2.78;;
6372;SDS011;3219;51.362;7.074;2023-03-24T16:02:00;6.53;;;2.42;;